Time;durP1;ratioP1;P1;durP2;ratioP2;P2;SDS_P1;SDS_P2;PMS_P1;PMS_P2;Temp;Humidity;BMP_temperature;BMP_pressure;BME280_temperature;BME280_humidity;BME280_pressure;Samples;Min_cycle;Max_cycle;Signal;HPM_P1;HPM_P2
2021/11/06 00:00:16;;;;;;;8.95;2.83;;;8.60;99.90;;;;;;5012340;28;20041;-51
2021/11/06 00:02:41;;;;;;;5.57;2.63;;;8.70;99.90;;;;;;5012371;28;20038;-49
2021/11/06 00:05:07;;;;;;;8.68;3.42;;;8.70;99.90;;;;;;5011738;28;20057;-50
2021/11/06 00:07:33;;;;;;;8.48;2.95;;;8.70;99.90;;;;;;5012073;28;20120;-51
2021/11/06 00:09:59;;;;;;;6.75;2.85;;;8.70;99.90;;;;;;5011889;28;20042;-50
2021/11/06 00:12:25;;;;;;;9.40;2.67;;;8.70;99.90;;;;;;5012876;28;20054;-48
2021/11/06 00:14:50;;;;;;;8.68;2.90;;;8.70;99.90;;;;;;5012032;28;20052;-51
2021/11/06 00:17:16;;;;;;;10.02;3.33;;;8.70;99.90;;;;;;5011442;28;20045;-52
2021/11/06 00:19:41;;;;;;;9.23;2.90;;;8.80;99.90;;;;;;5015311;28;20117;-53
2021/11/06 00:22:08;;;;;;;6.22;2.70;;;8.80;99.90;;;;;;5018233;28;20180;-51
2021/11/06 00:24:35;;;;;;;8.80;2.97;;;8.80;99.90;;;;;;5014268;28;20049;-53
2021/11/06 00:27:00;;;;;;;9.88;2.60;;;8.80;99.90;;;;;;5017592;28;20477;-53
2021/11/06 00:29:26;;;;;;;8.18;3.03;;;8.80;99.90;;;;;;5012226;28;20057;-52
2021/11/06 00:31:51;;;;;;;8.88;2.50;;;8.80;99.90;;;;;;5011082;28;20112;-49
2021/11/06 00:34:17;;;;;;;13.40;3.03;;;8.80;99.90;;;;;;5005522;28;20131;-53
2021/11/06 00:36:43;;;;;;;9.52;3.13;;;8.80;99.90;;;;;;5004383;28;20038;-51
2021/11/06 00:39:08;;;;;;;9.45;2.85;;;8.80;99.90;;;;;;5009256;28;20038;-52
2021/11/06 00:41:34;;;;;;;11.15;2.80;;;8.80;99.90;;;;;;4993237;28;20490;-50
2021/11/06 00:44:00;;;;;;;11.02;2.92;;;8.80;99.90;;;;;;5011899;28;20095;-49
2021/11/06 00:46:26;;;;;;;5.68;2.97;;;8.80;99.90;;;;;;5006432;28;20107;-49
2021/11/06 00:48:51;;;;;;;8.77;3.08;;;8.80;99.90;;;;;;5011338;28;20502;-48
2021/11/06 00:51:17;;;;;;;11.32;3.65;;;8.80;99.90;;;;;;5011418;28;20049;-52
2021/11/06 00:53:43;;;;;;;8.20;3.03;;;8.80;99.90;;;;;;5009254;28;20034;-52
2021/11/06 00:56:08;;;;;;;6.25;2.90;;;8.80;99.90;;;;;;5011044;28;20033;-52
2021/11/06 00:58:34;;;;;;;6.78;3.13;;;8.80;99.90;;;;;;5004439;28;20080;-50
2021/11/06 01:00:59;;;;;;;6.38;2.63;;;8.80;99.90;;;;;;5010561;28;20034;-53
2021/11/06 01:03:25;;;;;;;7.80;3.13;;;8.80;99.90;;;;;;5011240;28;20073;-53
2021/11/06 01:05:51;;;;;;;12.93;3.38;;;8.80;99.90;;;;;;5010795;28;20038;-53
2021/11/06 01:08:16;;;;;;;15.25;3.78;;;8.80;99.90;;;;;;5011299;28;20140;-53
2021/11/06 01:10:43;;;;;;;7.93;3.00;;;8.80;99.90;;;;;;5009600;28;20162;-52
2021/11/06 01:13:10;;;;;;;8.55;3.25;;;8.80;99.90;;;;;;5010727;28;20037;-53
2021/11/06 01:15:36;;;;;;;8.27;3.10;;;8.80;99.90;;;;;;5010985;28;20131;-53
2021/11/06 01:18:01;;;;;;;8.98;3.67;;;8.80;99.90;;;;;;5009863;28;20079;-53
2021/11/06 01:20:27;;;;;;;7.32;3.10;;;8.80;99.90;;;;;;5010831;28;20370;-51
2021/11/06 01:22:53;;;;;;;6.28;3.25;;;8.80;99.90;;;;;;5011345;28;20500;-52
2021/11/06 01:25:18;;;;;;;10.23;3.08;;;8.80;99.90;;;;;;5016421;28;20042;-53
2021/11/06 01:27:45;;;;;;;10.48;3.08;;;8.80;99.90;;;;;;5010410;28;20038;-52
2021/11/06 01:30:12;;;;;;;9.23;2.80;;;8.80;99.90;;;;;;5005831;28;20042;-53
2021/11/06 01:32:38;;;;;;;10.18;2.95;;;8.90;99.90;;;;;;5010799;28;20045;-52
2021/11/06 01:35:05;;;;;;;6.65;3.00;;;8.80;99.90;;;;;;5005396;28;20064;-53
2021/11/06 01:37:31;;;;;;;10.00;3.28;;;8.90;99.90;;;;;;5010619;28;20046;-53
2021/11/06 01:39:57;;;;;;;12.07;3.55;;;8.80;99.90;;;;;;5011487;28;20433;-52
2021/11/06 01:42:25;;;;;;;9.65;3.15;;;8.80;99.90;;;;;;5010099;28;20038;-52
2021/11/06 01:44:50;;;;;;;8.00;2.83;;;8.80;99.90;;;;;;5016478;28;20132;-53
2021/11/06 01:47:16;;;;;;;10.63;3.40;;;8.80;99.90;;;;;;5012257;28;20124;-53
2021/11/06 01:49:41;;;;;;;10.38;3.20;;;8.80;99.90;;;;;;5011671;28;20037;-52
2021/11/06 01:52:07;;;;;;;8.25;3.20;;;8.80;99.90;;;;;;5011170;28;20111;-53
2021/11/06 01:54:33;;;;;;;9.07;3.40;;;8.80;99.90;;;;;;5010443;28;20037;-52
2021/11/06 01:57:00;;;;;;;8.80;3.53;;;8.70;99.90;;;;;;5018046;28;20038;-51
2021/11/06 01:59:26;;;;;;;10.27;3.30;;;8.70;99.90;;;;;;5015786;28;20030;-53
2021/11/06 02:01:51;;;;;;;8.35;3.33;;;8.70;99.90;;;;;;5015458;28;20037;-52
2021/11/06 02:04:18;;;;;;;8.18;3.20;;;8.80;99.90;;;;;;5014042;28;20037;-51
2021/11/06 02:06:43;;;;;;;10.98;3.30;;;8.80;99.90;;;;;;5019812;28;20045;-51
2021/11/06 02:09:09;;;;;;;8.93;3.00;;;8.80;99.90;;;;;;5014999;28;20041;-49
2021/11/06 02:11:37;;;;;;;9.95;3.33;;;8.80;99.90;;;;;;5015387;28;20040;-49
2021/11/06 02:14:03;;;;;;;10.90;3.90;;;8.80;99.90;;;;;;5021592;28;20041;-48
2021/11/06 02:16:29;;;;;;;9.68;3.95;;;8.80;99.90;;;;;;5019318;28;20405;-49
2021/11/06 02:18:54;;;;;;;7.65;3.65;;;8.80;99.90;;;;;;5013133;28;20046;-49
2021/11/06 02:21:20;;;;;;;9.32;3.72;;;8.80;99.90;;;;;;5014773;28;20500;-51
2021/11/06 02:23:48;;;;;;;8.95;3.40;;;8.80;99.90;;;;;;5014482;28;20042;-50
2021/11/06 02:26:16;;;;;;;10.05;4.20;;;8.80;99.90;;;;;;5016367;28;20065;-49
2021/11/06 02:28:47;;;;;;;10.57;4.32;;;8.80;99.90;;;;;;5013820;28;20045;-48
2021/11/06 02:31:13;;;;;;;10.10;4.20;;;8.80;99.90;;;;;;4997027;28;20413;-49
2021/11/06 02:33:38;;;;;;;10.82;4.80;;;8.90;99.90;;;;;;4995255;28;20571;-52
2021/11/06 02:36:04;;;;;;;10.95;4.55;;;8.90;99.90;;;;;;5013968;28;20065;-48
2021/11/06 02:38:30;;;;;;;15.60;4.60;;;8.90;99.90;;;;;;5014615;28;20042;-49
2021/11/06 02:40:55;;;;;;;12.95;5.10;;;8.90;99.90;;;;;;5014062;28;20512;-49
2021/11/06 02:43:21;;;;;;;11.90;4.03;;;8.80;99.90;;;;;;5013526;28;20042;-48
2021/11/06 02:45:46;;;;;;;10.23;5.13;;;8.80;99.90;;;;;;5013805;28;20038;-48
2021/11/06 02:48:12;;;;;;;11.45;5.30;;;8.80;99.90;;;;;;5013828;28;20072;-49
2021/11/06 02:50:38;;;;;;;12.02;5.32;;;8.80;99.90;;;;;;5012004;28;20042;-49
2021/11/06 02:53:04;;;;;;;10.07;5.78;;;8.90;99.90;;;;;;5014198;28;20038;-48
2021/11/06 02:55:30;;;;;;;11.48;5.82;;;8.90;99.90;;;;;;5009953;28;20042;-49
2021/11/06 02:57:56;;;;;;;10.90;6.10;;;8.90;99.90;;;;;;5013473;28;20076;-49
2021/11/06 03:00:22;;;;;;;14.45;6.10;;;8.90;99.90;;;;;;5012087;28;20045;-49
2021/11/06 03:02:48;;;;;;;13.85;6.82;;;8.90;99.90;;;;;;5013126;28;20037;-50
2021/11/06 03:05:15;;;;;;;17.02;7.20;;;8.90;99.90;;;;;;5013130;28;20042;-49
2021/11/06 03:07:41;;;;;;;13.82;6.85;;;8.90;99.90;;;;;;5013038;28;20072;-48
2021/11/06 03:10:10;;;;;;;14.27;7.65;;;8.90;99.90;;;;;;5010160;28;20420;-50
2021/11/06 03:12:37;;;;;;;16.35;7.05;;;8.90;99.90;;;;;;5011571;28;20057;-50
2021/11/06 03:15:04;;;;;;;16.05;8.10;;;8.90;99.90;;;;;;5013258;28;20033;-49
2021/11/06 03:17:29;;;;;;;15.75;8.25;;;9.00;99.90;;;;;;5008661;28;20073;-49
2021/11/06 03:19:55;;;;;;;16.65;9.07;;;9.00;99.90;;;;;;5011541;28;20513;-51
2021/11/06 03:22:20;;;;;;;16.25;9.23;;;9.00;99.90;;;;;;5013684;28;20502;-49
2021/11/06 03:24:46;;;;;;;13.82;8.90;;;8.90;99.90;;;;;;5013435;28;20092;-49
2021/11/06 03:27:12;;;;;;;20.83;10.73;;;8.90;99.90;;;;;;5018960;28;20049;-49
2021/11/06 03:29:37;;;;;;;18.15;10.48;;;8.90;99.90;;;;;;5013295;28;20038;-50
2021/11/06 03:32:05;;;;;;;20.77;10.70;;;8.90;99.90;;;;;;5010876;28;20493;-49
2021/11/06 03:34:30;;;;;;;20.58;11.38;;;8.90;99.90;;;;;;5014053;28;20037;-50
2021/11/06 03:36:56;;;;;;;19.65;11.65;;;8.90;99.90;;;;;;5062162;22;20042;-49
2021/11/06 03:39:22;;;;;;;17.00;11.70;;;8.90;99.90;;;;;;5014732;28;20049;-49
2021/11/06 03:41:48;;;;;;;21.23;11.48;;;8.80;99.90;;;;;;5017338;28;20038;-49
2021/11/06 03:44:14;;;;;;;21.77;12.52;;;8.80;99.90;;;;;;5013270;28;20034;-49
2021/11/06 03:46:40;;;;;;;20.30;12.35;;;8.90;99.90;;;;;;5013051;28;20068;-49
2021/11/06 03:49:05;;;;;;;24.15;13.20;;;8.80;99.90;;;;;;5012524;28;20478;-49
2021/11/06 03:51:32;;;;;;;25.30;12.68;;;8.80;99.90;;;;;;4977465;28;20551;-50
2021/11/06 03:53:58;;;;;;;18.02;13.30;;;8.80;99.90;;;;;;4990186;28;20077;-48
2021/11/06 03:56:26;;;;;;;19.83;12.25;;;8.80;99.90;;;;;;4991182;28;20096;-50
2021/11/06 03:58:52;;;;;;;24.15;13.45;;;8.80;99.90;;;;;;5009611;28;20417;-49
2021/11/06 04:01:18;;;;;;;24.08;14.20;;;8.90;99.90;;;;;;5005478;28;20042;-51
2021/11/06 04:03:44;;;;;;;27.13;15.30;;;8.90;99.90;;;;;;5010743;28;20033;-50
2021/11/06 04:06:10;;;;;;;22.80;14.43;;;8.90;99.90;;;;;;5012486;28;20040;-50
2021/11/06 04:08:36;;;;;;;23.42;15.20;;;8.90;99.90;;;;;;4993124;28;20057;-49
2021/11/06 04:11:03;;;;;;;22.33;14.85;;;8.90;99.90;;;;;;5010120;28;20507;-50
2021/11/06 04:13:29;;;;;;;26.90;14.98;;;8.90;99.90;;;;;;5007999;28;20592;-49
2021/11/06 04:15:55;;;;;;;24.15;14.95;;;8.90;99.90;;;;;;5009268;28;20113;-53
2021/11/06 04:18:21;;;;;;;24.20;15.52;;;8.90;99.90;;;;;;4978527;28;20038;-51
2021/11/06 04:20:47;;;;;;;23.95;15.32;;;9.00;99.90;;;;;;5011288;28;20057;-53
2021/11/06 04:23:13;;;;;;;24.83;15.48;;;9.00;99.90;;;;;;4994825;28;20077;-52
2021/11/06 04:25:40;;;;;;;22.70;15.35;;;8.90;99.90;;;;;;4994931;28;20124;-51
2021/11/06 04:28:06;;;;;;;26.73;17.05;;;9.00;99.90;;;;;;4991596;28;20103;-53
2021/11/06 04:30:31;;;;;;;29.80;16.55;;;9.00;99.90;;;;;;5009087;28;20450;-51
2021/11/06 04:32:57;;;;;;;29.52;17.65;;;9.00;99.90;;;;;;5012180;28;20037;-54
2021/11/06 04:35:23;;;;;;;28.10;16.95;;;9.00;99.90;;;;;;5012010;28;20140;-51
2021/11/06 04:37:49;;;;;;;29.80;16.92;;;9.00;99.90;;;;;;5005769;28;20042;-50
2021/11/06 04:40:15;;;;;;;25.92;17.52;;;9.00;99.90;;;;;;5012151;28;20121;-51
2021/11/06 04:42:42;;;;;;;33.83;17.23;;;9.00;99.90;;;;;;5011692;28;20038;-53
2021/11/06 04:45:09;;;;;;;32.25;17.95;;;9.00;99.90;;;;;;5006839;28;20042;-53
2021/11/06 04:47:34;;;;;;;30.35;17.55;;;9.00;99.90;;;;;;5011876;28;20045;-52
2021/11/06 04:50:00;;;;;;;33.75;18.40;;;9.00;99.90;;;;;;5006061;28;20045;-54
2021/11/06 04:52:26;;;;;;;30.35;18.85;;;9.00;99.90;;;;;;5011669;28;20426;-53
2021/11/06 04:54:52;;;;;;;33.70;19.33;;;9.00;99.90;;;;;;5011024;28;20046;-51
2021/11/06 04:57:18;;;;;;;29.33;18.45;;;8.90;99.90;;;;;;5008405;28;20049;-53
2021/11/06 04:59:44;;;;;;;29.25;17.48;;;8.90;99.90;;;;;;5009914;28;20038;-53
2021/11/06 05:02:09;;;;;;;35.55;18.70;;;8.90;99.90;;;;;;5011832;28;20072;-53
2021/11/06 05:04:37;;;;;;;30.15;18.50;;;8.90;99.90;;;;;;5008073;28;20497;-50
2021/11/06 05:07:04;;;;;;;27.13;17.80;;;8.90;99.90;;;;;;5004382;28;20085;-51
2021/11/06 05:09:29;;;;;;;26.52;17.25;;;8.90;99.90;;;;;;4990780;28;20044;-50
2021/11/06 05:11:55;;;;;;;30.25;18.33;;;8.90;99.90;;;;;;5008152;28;20038;-53
2021/11/06 05:14:20;;;;;;;31.35;18.05;;;8.90;99.90;;;;;;5011219;28;20034;-53
2021/11/06 05:16:49;;;;;;;26.63;18.15;;;8.90;99.90;;;;;;5011364;28;20037;-49
2021/11/06 05:19:15;;;;;;;28.90;18.13;;;8.90;99.90;;;;;;4993574;28;20037;-53
2021/11/06 05:21:41;;;;;;;29.48;18.00;;;8.90;99.90;;;;;;5010943;28;20038;-53
2021/11/06 05:24:09;;;;;;;31.02;17.65;;;8.90;99.90;;;;;;4977913;28;20046;-53
2021/11/06 05:26:38;;;;;;;27.30;17.45;;;8.90;99.90;;;;;;5010144;28;20045;-52
2021/11/06 05:29:06;;;;;;;29.95;17.05;;;8.90;99.90;;;;;;5011184;28;20417;-51
2021/11/06 05:31:33;;;;;;;30.08;17.50;;;8.90;99.90;;;;;;5010881;28;20569;-53
2021/11/06 05:34:00;;;;;;;30.98;16.48;;;9.00;99.90;;;;;;5010933;28;20048;-52
2021/11/06 05:36:27;;;;;;;25.50;16.60;;;9.00;99.90;;;;;;4974947;28;20573;-50
2021/11/06 05:38:54;;;;;;;30.67;18.15;;;9.00;99.90;;;;;;4993672;28;20088;-53
2021/11/06 05:41:20;;;;;;;27.95;16.98;;;9.00;99.90;;;;;;4990946;28;20053;-52
2021/11/06 05:43:46;;;;;;;25.30;16.98;;;8.90;99.90;;;;;;4974495;28;20121;-52
2021/11/06 05:46:12;;;;;;;26.75;17.48;;;9.00;99.90;;;;;;4993536;28;20124;-51
2021/11/06 05:48:39;;;;;;;25.25;16.90;;;9.00;99.90;;;;;;4991329;28;20035;-51
2021/11/06 05:51:05;;;;;;;29.50;16.83;;;9.00;99.90;;;;;;4977496;28;20034;-51
2021/11/06 05:53:31;;;;;;;26.02;16.92;;;8.90;99.90;;;;;;5009410;28;20133;-52
2021/11/06 05:55:58;;;;;;;28.60;16.88;;;9.00;99.90;;;;;;4989735;28;20451;-52
2021/11/06 05:58:24;;;;;;;29.08;17.10;;;8.90;99.90;;;;;;5011028;28;20088;-50
2021/11/06 06:00:50;;;;;;;29.00;17.50;;;9.00;99.90;;;;;;5011004;28;20113;-53
2021/11/06 06:03:17;;;;;;;24.08;16.17;;;9.00;99.90;;;;;;5009022;28;20085;-54
2021/11/06 06:05:43;;;;;;;25.02;16.20;;;9.00;99.90;;;;;;5001425;28;20044;-54
2021/11/06 06:08:10;;;;;;;25.55;17.17;;;9.00;99.90;;;;;;5009992;28;20042;-52
2021/11/06 06:10:36;;;;;;;26.92;17.45;;;9.00;99.90;;;;;;4986490;28;20033;-53
2021/11/06 06:13:01;;;;;;;25.70;16.23;;;9.00;99.90;;;;;;5011113;28;20160;-52
2021/11/06 06:15:27;;;;;;;30.02;17.80;;;9.00;99.90;;;;;;5010661;28;20081;-51
2021/11/06 06:17:52;;;;;;;27.40;17.45;;;9.00;99.90;;;;;;5010052;28;20042;-51
2021/11/06 06:20:19;;;;;;;28.65;18.08;;;9.10;99.90;;;;;;5010974;28;20041;-50
2021/11/06 06:22:45;;;;;;;31.23;18.17;;;9.10;99.90;;;;;;5010380;28;20490;-50
2021/11/06 06:25:12;;;;;;;29.30;17.48;;;9.00;99.90;;;;;;5005068;28;20048;-49
2021/11/06 06:27:39;;;;;;;31.23;19.25;;;9.10;99.90;;;;;;5009946;28;20046;-53
2021/11/06 06:30:13;;;;;;;28.95;17.67;;;9.10;99.90;;;;;;5011097;28;20086;-53
2021/11/06 06:32:39;;;;;;;22.90;17.27;;;9.10;99.90;;;;;;5010991;28;20042;-53
2021/11/06 06:35:07;;;;;;;28.70;18.15;;;9.10;99.90;;;;;;5010264;28;20065;-53
2021/11/06 06:37:32;;;;;;;30.50;19.23;;;9.00;99.90;;;;;;5007964;28;20045;-53
2021/11/06 06:39:58;;;;;;;26.35;18.33;;;9.00;99.90;;;;;;5010067;28;20046;-50
2021/11/06 06:42:24;;;;;;;30.40;19.60;;;9.00;99.90;;;;;;5010668;28;20440;-54
2021/11/06 06:44:51;;;;;;;29.95;18.85;;;9.10;99.90;;;;;;5009092;28;20037;-54
2021/11/06 06:47:17;;;;;;;29.50;18.67;;;9.00;99.90;;;;;;5004370;28;20037;-54
2021/11/06 06:49:43;;;;;;;25.67;17.52;;;9.10;99.90;;;;;;5012984;28;20046;-52
2021/11/06 06:52:08;;;;;;;31.67;19.08;;;9.10;99.90;;;;;;5007959;28;20042;-51
2021/11/06 06:54:34;;;;;;;32.63;18.85;;;9.10;99.90;;;;;;5013607;28;20100;-53
2021/11/06 06:57:00;;;;;;;29.60;18.48;;;9.10;99.90;;;;;;5012074;28;20511;-53
2021/11/06 06:59:26;;;;;;;31.50;19.38;;;9.10;99.90;;;;;;5010012;28;20449;-50
2021/11/06 07:01:51;;;;;;;31.17;18.60;;;9.10;99.90;;;;;;5010326;28;20099;-50
2021/11/06 07:04:17;;;;;;;28.92;19.38;;;9.10;99.90;;;;;;5006039;28;20037;-51
2021/11/06 07:06:46;;;;;;;32.53;20.48;;;9.10;99.90;;;;;;4976074;28;20037;-51
2021/11/06 07:09:12;;;;;;;30.92;18.70;;;9.10;99.90;;;;;;4997318;28;20128;-53
2021/11/06 07:11:37;;;;;;;32.05;19.33;;;9.10;99.90;;;;;;5013680;28;20351;-53
2021/11/06 07:14:03;;;;;;;30.60;20.38;;;9.10;99.90;;;;;;5010270;28;20446;-50
2021/11/06 07:16:29;;;;;;;29.83;18.83;;;9.10;99.90;;;;;;4995826;28;20554;-52
2021/11/06 07:18:55;;;;;;;33.78;20.23;;;9.10;99.90;;;;;;5004534;28;20152;-52
2021/11/06 07:21:20;;;;;;;29.90;18.88;;;9.10;99.90;;;;;;4947274;28;20042;-52
2021/11/06 07:23:46;;;;;;;33.13;20.45;;;9.10;99.90;;;;;;5010426;28;20107;-54
2021/11/06 07:26:11;;;;;;;33.28;20.17;;;9.10;99.90;;;;;;5013247;28;20050;-49
2021/11/06 07:28:38;;;;;;;32.15;19.13;;;9.00;99.90;;;;;;5012082;28;20045;-52
2021/11/06 07:31:04;;;;;;;32.03;17.77;;;9.10;99.90;;;;;;5006709;28;20050;-52
2021/11/06 07:33:29;;;;;;;29.17;19.35;;;9.10;99.90;;;;;;5012062;28;20053;-51
2021/11/06 07:35:55;;;;;;;34.50;19.73;;;9.00;99.90;;;;;;5010025;28;20037;-50
2021/11/06 07:38:21;;;;;;;31.83;18.42;;;9.10;99.90;;;;;;5001191;28;20589;-50
2021/11/06 07:40:46;;;;;;;34.70;19.40;;;9.10;99.90;;;;;;5019747;28;20043;-50
2021/11/06 07:43:13;;;;;;;33.22;19.83;;;9.10;99.90;;;;;;4989790;28;20124;-49
2021/11/06 07:45:40;;;;;;;34.47;21.30;;;9.00;99.90;;;;;;5011284;28;20080;-50
2021/11/06 07:48:06;;;;;;;31.67;19.80;;;9.00;99.90;;;;;;5008592;28;20165;-51
2021/11/06 07:50:32;;;;;;;33.15;20.23;;;9.10;99.90;;;;;;4975149;28;20540;-50
2021/11/06 07:52:59;;;;;;;39.38;20.05;;;9.10;99.90;;;;;;5006150;28;20034;-49
2021/11/06 07:55:25;;;;;;;29.38;18.85;;;9.10;99.90;;;;;;4980734;28;20345;-50
2021/11/06 07:57:51;;;;;;;35.10;20.33;;;9.10;99.90;;;;;;5002687;28;20483;-53
2021/11/06 08:00:19;;;;;;;36.10;20.55;;;9.10;99.90;;;;;;4999812;28;20033;-51
2021/11/06 08:02:46;;;;;;;35.15;19.88;;;9.10;99.90;;;;;;4976779;28;20142;-53
2021/11/06 08:05:14;;;;;;;35.65;19.98;;;9.10;99.90;;;;;;4978505;28;20044;-52
2021/11/06 08:07:41;;;;;;;35.55;20.13;;;9.10;99.90;;;;;;4990356;28;20041;-50
2021/11/06 08:10:07;;;;;;;37.55;20.17;;;9.10;99.90;;;;;;5012875;28;20409;-49
2021/11/06 08:12:37;;;;;;;35.10;20.58;;;9.10;99.90;;;;;;5008682;28;20037;-55
2021/11/06 08:15:04;;;;;;;36.10;20.25;;;9.10;99.90;;;;;;5009765;28;20042;-54
2021/11/06 08:17:30;;;;;;;37.83;20.67;;;9.10;99.90;;;;;;4974916;28;20125;-54
2021/11/06 08:19:56;;;;;;;37.58;20.80;;;9.10;99.90;;;;;;5010676;28;20427;-54
2021/11/06 08:22:23;;;;;;;37.05;21.30;;;9.20;99.90;;;;;;5011458;28;20037;-52
2021/11/06 08:24:49;;;;;;;38.95;20.58;;;9.20;99.90;;;;;;5010713;28;20446;-51
2021/11/06 08:27:15;;;;;;;41.40;23.15;;;9.20;99.90;;;;;;5008771;28;20049;-53
2021/11/06 08:29:41;;;;;;;34.40;20.30;;;9.20;99.90;;;;;;4992044;28;20034;-53
2021/11/06 08:32:07;;;;;;;37.78;21.33;;;9.20;99.90;;;;;;5010129;28;20041;-53
2021/11/06 08:34:34;;;;;;;39.40;21.40;;;9.20;99.90;;;;;;5009799;28;20041;-53
2021/11/06 08:37:00;;;;;;;38.97;22.45;;;9.20;99.90;;;;;;5008542;28;20152;-53
2021/11/06 08:39:27;;;;;;;45.05;22.50;;;9.20;99.90;;;;;;5010154;28;20073;-54
2021/11/06 08:41:56;;;;;;;37.80;20.80;;;9.20;99.90;;;;;;5008801;28;20044;-50
2021/11/06 08:44:23;;;;;;;38.60;20.88;;;9.20;99.90;;;;;;5001712;28;20520;-50
2021/11/06 08:46:51;;;;;;;40.75;21.40;;;9.20;99.90;;;;;;5014820;28;20053;-51
2021/11/06 08:49:21;;;;;;;40.00;22.10;;;9.20;99.90;;;;;;5010308;28;20100;-50
2021/11/06 08:51:49;;;;;;;39.63;21.98;;;9.20;99.90;;;;;;4989126;28;20221;-52
2021/11/06 08:54:16;;;;;;;37.28;21.45;;;9.20;99.90;;;;;;5011089;28;20046;-50
2021/11/06 08:56:43;;;;;;;39.42;19.88;;;9.30;99.90;;;;;;5011158;28;20042;-53
2021/11/06 08:59:19;;;;;;;37.13;20.27;;;9.20;99.90;;;;;;5005229;28;20501;-51
2021/11/06 09:01:48;;;;;;;40.30;21.08;;;9.20;99.90;;;;;;5015384;28;20062;-50
2021/11/06 09:04:14;;;;;;;37.22;21.17;;;9.20;99.90;;;;;;5010531;28;20045;-51
2021/11/06 09:06:41;;;;;;;36.97;19.55;;;9.30;99.90;;;;;;5010477;28;20414;-50
2021/11/06 09:09:09;;;;;;;35.60;19.90;;;9.30;99.90;;;;;;5013580;28;20042;-50
2021/11/06 09:11:36;;;;;;;39.22;21.55;;;9.30;99.90;;;;;;5010826;28;20038;-51
2021/11/06 09:14:02;;;;;;;32.70;19.45;;;9.30;99.90;;;;;;4992527;28;20585;-52
2021/11/06 09:16:28;;;;;;;38.60;19.52;;;9.40;99.90;;;;;;4986921;28;20057;-50
2021/11/06 09:18:54;;;;;;;32.15;19.10;;;9.40;99.90;;;;;;5015433;28;20496;-53
2021/11/06 09:21:23;;;;;;;36.72;18.35;;;9.40;99.90;;;;;;5011438;28;20040;-50
2021/11/06 09:23:50;;;;;;;33.92;19.25;;;9.40;99.90;;;;;;4996958;28;20041;-52
2021/11/06 09:26:20;;;;;;;36.67;20.08;;;9.40;99.90;;;;;;5007713;28;20045;-53
2021/11/06 09:28:48;;;;;;;33.42;19.45;;;9.50;99.90;;;;;;5006941;28;20416;-53
2021/11/06 09:31:16;;;;;;;31.95;19.00;;;9.50;99.90;;;;;;5017022;28;20041;-50
2021/11/06 09:33:43;;;;;;;36.30;19.45;;;9.50;99.90;;;;;;5018604;28;20489;-50
2021/11/06 09:36:09;;;;;;;35.13;20.25;;;9.60;99.90;;;;;;5008614;23;20042;-54
2021/11/06 09:38:36;;;;;;;32.80;20.15;;;9.60;99.90;;;;;;4991860;28;20042;-52
2021/11/06 09:41:03;;;;;;;38.88;18.98;;;9.60;99.90;;;;;;4994670;28;20034;-55
2021/11/06 09:43:29;;;;;;;34.50;20.33;;;9.60;99.90;;;;;;4996630;28;20157;-54
2021/11/06 09:45:57;;;;;;;36.60;19.73;;;9.60;99.90;;;;;;4991426;28;20121;-54
2021/11/06 09:48:23;;;;;;;29.85;17.98;;;9.70;99.90;;;;;;4989550;28;20134;-51
2021/11/06 09:50:49;;;;;;;33.03;18.63;;;9.70;99.90;;;;;;4991600;28;20390;-52
2021/11/06 09:53:16;;;;;;;41.78;19.83;;;9.70;99.90;;;;;;4993868;28;20465;-54
2021/11/06 09:55:43;;;;;;;34.70;19.77;;;9.80;99.90;;;;;;4999298;28;20092;-52
2021/11/06 09:58:09;;;;;;;35.55;18.45;;;9.80;99.90;;;;;;4993825;28;20053;-52
2021/11/06 10:00:34;;;;;;;35.72;18.92;;;9.90;99.90;;;;;;5003297;28;20042;-55
2021/11/06 10:03:00;;;;;;;30.83;18.45;;;9.90;99.90;;;;;;4992798;28;20414;-54
2021/11/06 10:05:49;;;;;;;37.42;17.70;;;9.90;99.90;;;;;;4993430;28;20034;-54
2021/11/06 10:08:23;;;;;;;33.22;18.15;;;10.00;99.90;;;;;;4992568;28;20057;-52
2021/11/06 10:10:52;;;;;;;29.98;16.42;;;10.00;99.90;;;;;;4992338;28;20031;-55
2021/11/06 10:13:19;;;;;;;28.63;18.13;;;10.00;99.90;;;;;;4991313;28;20042;-55
2021/11/06 10:15:50;;;;;;;32.28;18.83;;;10.10;99.90;;;;;;4990115;28;20121;-55
2021/11/06 10:18:18;;;;;;;29.67;17.40;;;10.10;99.90;;;;;;4991616;28;20057;-54
2021/11/06 10:20:46;;;;;;;31.05;16.98;;;10.10;99.90;;;;;;4994495;28;20348;-55
2021/11/06 10:23:13;;;;;;;28.33;16.08;;;10.10;99.90;;;;;;4990437;28;20081;-55
2021/11/06 10:25:40;;;;;;;31.55;17.08;;;10.10;99.90;;;;;;4993236;28;20058;-55
2021/11/06 10:28:08;;;;;;;33.22;17.02;;;10.10;99.90;;;;;;4992829;28;20046;-55
2021/11/06 10:30:39;;;;;;;27.50;15.68;;;10.20;99.90;;;;;;4991247;28;20089;-55
2021/11/06 10:33:13;;;;;;;36.20;17.17;;;10.20;99.90;;;;;;4994492;28;20038;-55
2021/11/06 10:35:42;;;;;;;33.47;17.60;;;10.20;99.90;;;;;;4991918;28;20390;-55
2021/11/06 10:38:17;;;;;;;31.70;17.60;;;10.20;99.90;;;;;;4994285;28;20046;-56
2021/11/06 10:40:49;;;;;;;33.08;17.00;;;10.20;99.90;;;;;;4992898;28;20081;-55
2021/11/06 10:43:17;;;;;;;30.75;16.98;;;10.20;99.90;;;;;;4991406;28;20499;-55
2021/11/06 10:45:49;;;;;;;30.23;17.25;;;10.30;99.90;;;;;;4994419;28;20030;-56
2021/11/06 10:48:17;;;;;;;32.63;17.95;;;10.20;99.90;;;;;;4992888;28;20037;-55
2021/11/06 10:50:54;;;;;;;30.30;16.25;;;10.30;99.90;;;;;;4994010;28;20052;-56
2021/11/06 10:53:51;;;;;;;32.28;16.75;;;10.30;99.90;;;;;;4993594;28;20483;-55
2021/11/06 10:56:33;;;;;;;29.40;17.02;;;10.30;99.90;;;;;;4991773;28;20096;-56
2021/11/06 10:59:21;;;;;;;29.38;16.33;;;10.30;99.90;;;;;;4992444;28;20125;-56
2021/11/06 11:01:53;;;;;;;30.15;16.42;;;10.30;99.90;;;;;;4993211;28;20042;-56
2021/11/06 11:04:20;;;;;;;27.45;15.15;;;10.30;99.90;;;;;;4990795;28;20487;-56
2021/11/06 11:06:51;;;;;;;29.88;15.55;;;10.30;99.90;;;;;;4993794;28;20030;-56
2021/11/06 11:09:25;;;;;;;31.33;15.95;;;10.30;99.90;;;;;;4994292;28;20038;-56
2021/11/06 11:11:54;;;;;;;27.85;14.77;;;10.30;99.90;;;;;;4996799;28;20495;-56
2021/11/06 11:14:26;;;;;;;29.63;15.57;;;10.30;99.90;;;;;;4994804;28;20504;-55
2021/11/06 11:16:57;;;;;;;23.88;14.45;;;10.20;99.90;;;;;;4997451;28;20457;-56
2021/11/06 11:19:54;;;;;;;27.52;14.88;;;10.20;99.90;;;;;;4994752;28;20089;-56
2021/11/06 11:22:24;;;;;;;23.05;13.98;;;10.20;99.90;;;;;;4964512;28;20050;-56
2021/11/06 11:24:50;;;;;;;22.30;13.48;;;10.20;99.90;;;;;;4992677;28;20034;-55
2021/11/06 11:27:18;;;;;;;29.33;15.13;;;10.30;99.90;;;;;;4993112;28;20069;-56
2021/11/06 11:29:44;;;;;;;25.98;14.02;;;10.30;99.90;;;;;;4995249;28;20405;-55
2021/11/06 11:32:12;;;;;;;28.08;13.57;;;10.30;99.90;;;;;;4993441;28;20035;-55
2021/11/06 11:34:41;;;;;;;22.27;13.07;;;10.40;99.90;;;;;;4992969;28;20042;-56
2021/11/06 11:37:07;;;;;;;23.00;12.85;;;10.40;99.90;;;;;;4991900;28;20141;-55
2021/11/06 11:39:33;;;;;;;25.02;12.63;;;10.40;99.90;;;;;;4992679;28;20117;-56
2021/11/06 11:42:26;;;;;;;23.95;12.85;;;10.40;99.90;;;;;;4992596;28;20034;-56
2021/11/06 11:45:19;;;;;;;23.45;12.45;;;10.50;99.90;;;;;;4995136;28;20379;-56
2021/11/06 11:48:00;;;;;;;23.52;12.27;;;10.50;99.90;;;;;;4993964;28;20034;-56
2021/11/06 11:50:32;;;;;;;26.38;12.93;;;10.50;99.90;;;;;;4993019;28;20494;-56
2021/11/06 11:52:59;;;;;;;20.27;11.73;;;10.50;99.90;;;;;;4990789;28;20461;-56
2021/11/06 11:55:44;;;;;;;22.98;12.57;;;10.60;99.90;;;;;;4991518;28;20101;-56
2021/11/06 11:58:22;;;;;;;21.00;11.60;;;10.60;99.90;;;;;;4989725;28;20038;-56
2021/11/06 12:00:58;;;;;;;20.52;10.77;;;10.60;99.90;;;;;;4992162;28;20042;-56
2021/11/06 12:03:40;;;;;;;22.98;11.65;;;10.60;99.90;;;;;;4992042;28;20041;-56
2021/11/06 12:06:35;;;;;;;22.15;10.68;;;10.70;99.90;;;;;;4990336;28;20057;-56
2021/11/06 12:09:17;;;;;;;20.02;10.30;;;10.70;99.90;;;;;;4989349;28;20113;-56
2021/11/06 12:11:57;;;;;;;23.13;9.95;;;10.80;99.90;;;;;;4990081;28;20049;-56
2021/11/06 12:14:28;;;;;;;16.02;8.88;;;10.80;99.90;;;;;;4991848;28;20038;-56
2021/11/06 12:17:09;;;;;;;21.58;10.20;;;10.80;99.90;;;;;;4991240;28;20060;-56
2021/11/06 12:19:42;;;;;;;19.40;9.20;;;10.80;99.90;;;;;;4991584;28;20516;-56
2021/11/06 12:22:18;;;;;;;19.80;9.02;;;10.90;99.90;;;;;;4990708;28;20034;-56
2021/11/06 12:24:49;;;;;;;18.02;9.20;;;10.90;99.90;;;;;;4990736;28;20070;-56
2021/11/06 12:27:29;;;;;;;16.08;8.77;;;10.90;99.90;;;;;;4986811;28;20506;-55
2021/11/06 12:29:55;;;;;;;17.17;9.07;;;10.90;99.90;;;;;;4987423;28;20100;-56
2021/11/06 12:32:33;;;;;;;19.48;9.20;;;10.90;99.90;;;;;;4992386;28;20076;-56
2021/11/06 12:35:19;;;;;;;20.30;9.02;;;10.90;99.90;;;;;;4990521;28;20077;-56
2021/11/06 12:37:51;;;;;;;26.63;9.32;;;10.90;99.90;;;;;;4990626;28;20362;-56
2021/11/06 12:40:35;;;;;;;24.70;8.85;;;11.00;99.90;;;;;;4992903;28;20051;-56